sensor_id;sensor_type;location;lat;lon;timestamp;temperature;humidity
70214;DHT22;60138;55.808;37.078;2022-07-10T00:01:52;18.57;69.66
70214;DHT22;60138;55.808;37.078;2022-07-10T00:04:18;18.56;69.49
70214;DHT22;60138;55.808;37.078;2022-07-10T00:06:43;18.55;69.49
70214;DHT22;60138;55.808;37.078;2022-07-10T00:09:09;18.52;69.52
70214;DHT22;60138;55.808;37.078;2022-07-10T00:11:35;18.44;69.78
70214;DHT22;60138;55.808;37.078;2022-07-10T00:14:00;18.37;69.57
70214;DHT22;60138;55.808;37.078;2022-07-10T00:16:26;18.29;69.92
70214;DHT22;60138;55.808;37.078;2022-07-10T00:18:52;18.22;70.07
70214;DHT22;60138;55.808;37.078;2022-07-10T00:21:18;18.13;70.16
70214;DHT22;60138;55.808;37.078;2022-07-10T00:23:43;18.08;70.45
70214;DHT22;60138;55.808;37.078;2022-07-10T00:26:09;18.04;70.48
70214;DHT22;60138;55.808;37.078;2022-07-10T00:28:35;17.98;71.01
70214;DHT22;60138;55.808;37.078;2022-07-10T00:31:00;17.88;72.19
70214;DHT22;60138;55.808;37.078;2022-07-10T00:33:26;17.82;71.75
70214;DHT22;60138;55.808;37.078;2022-07-10T00:35:52;17.84;71.43
70214;DHT22;60138;55.808;37.078;2022-07-10T00:38:18;17.87;71.32
70214;DHT22;60138;55.808;37.078;2022-07-10T00:40:43;17.88;71.51
70214;DHT22;60138;55.808;37.078;2022-07-10T00:43:09;17.88;71.34
70214;DHT22;60138;55.808;37.078;2022-07-10T00:45:35;17.87;71.38
70214;DHT22;60138;55.808;37.078;2022-07-10T00:48:01;17.84;71.42
70214;DHT22;60138;55.808;37.078;2022-07-10T00:50:27;17.80;71.35
70214;DHT22;60138;55.808;37.078;2022-07-10T00:52:53;17.75;71.41
70214;DHT22;60138;55.808;37.078;2022-07-10T00:55:19;17.70;71.43
70214;DHT22;60138;55.808;37.078;2022-07-10T00:57:46;17.60;71.41
70214;DHT22;60138;55.808;37.078;2022-07-10T01:00:12;17.55;71.45
70214;DHT22;60138;55.808;37.078;2022-07-10T01:02:43;17.52;71.92
70214;DHT22;60138;55.808;37.078;2022-07-10T01:05:10;17.50;71.68
70214;DHT22;60138;55.808;37.078;2022-07-10T01:07:36;17.49;72.08
70214;DHT22;60138;55.808;37.078;2022-07-10T01:10:03;17.47;72.13
70214;DHT22;60138;55.808;37.078;2022-07-10T01:12:29;17.47;72.11
70214;DHT22;60138;55.808;37.078;2022-07-10T01:14:55;17.45;72.26
70214;DHT22;60138;55.808;37.078;2022-07-10T01:17:21;17.46;72.38
70214;DHT22;60138;55.808;37.078;2022-07-10T01:19:47;17.47;72.25
70214;DHT22;60138;55.808;37.078;2022-07-10T01:22:13;17.51;72.41
70214;DHT22;60138;55.808;37.078;2022-07-10T01:24:39;17.55;72.38
70214;DHT22;60138;55.808;37.078;2022-07-10T01:27:05;17.59;72.26
70214;DHT22;60138;55.808;37.078;2022-07-10T01:29:30;17.64;72.58
70214;DHT22;60138;55.808;37.078;2022-07-10T01:31:56;17.69;72.48
70214;DHT22;60138;55.808;37.078;2022-07-10T01:34:22;17.74;72.38
70214;DHT22;60138;55.808;37.078;2022-07-10T01:36:48;17.79;72.25
70214;DHT22;60138;55.808;37.078;2022-07-10T01:39:14;17.85;72.17
70214;DHT22;60138;55.808;37.078;2022-07-10T01:41:39;17.91;71.94
70214;DHT22;60138;55.808;37.078;2022-07-10T01:44:05;17.96;71.93
70214;DHT22;60138;55.808;37.078;2022-07-10T01:46:31;18.02;71.64
70214;DHT22;60138;55.808;37.078;2022-07-10T01:48:56;18.08;71.38
70214;DHT22;60138;55.808;37.078;2022-07-10T01:51:22;18.15;71.32
70214;DHT22;60138;55.808;37.078;2022-07-10T01:53:48;18.19;71.51
70214;DHT22;60138;55.808;37.078;2022-07-10T01:56:15;18.23;71.39
70214;DHT22;60138;55.808;37.078;2022-07-10T01:58:41;18.26;71.45
70214;DHT22;60138;55.808;37.078;2022-07-10T02:01:08;18.30;71.09
70214;DHT22;60138;55.808;37.078;2022-07-10T02:03:34;18.33;71.35
70214;DHT22;60138;55.808;37.078;2022-07-10T02:05:59;18.34;71.12
70214;DHT22;60138;55.808;37.078;2022-07-10T02:08:25;18.38;70.97
70214;DHT22;60138;55.808;37.078;2022-07-10T02:10:51;18.48;71.06
70214;DHT22;60138;55.808;37.078;2022-07-10T02:13:17;18.57;70.82
70214;DHT22;60138;55.808;37.078;2022-07-10T02:16:03;18.66;70.66
70214;DHT22;60138;55.808;37.078;2022-07-10T02:18:28;18.72;70.55
70214;DHT22;60138;55.808;37.078;2022-07-10T02:20:54;18.77;70.42
70214;DHT22;60138;55.808;37.078;2022-07-10T02:23:20;18.88;70.37
70214;DHT22;60138;55.808;37.078;2022-07-10T02:25:46;18.97;70.41
70214;DHT22;60138;55.808;37.078;2022-07-10T02:28:11;19.05;70.23
70214;DHT22;60138;55.808;37.078;2022-07-10T02:30:37;19.13;70.19
70214;DHT22;60138;55.808;37.078;2022-07-10T02:33:03;19.21;70.03
70214;DHT22;60138;55.808;37.078;2022-07-10T02:35:29;19.27;70.03
70214;DHT22;60138;55.808;37.078;2022-07-10T02:37:56;19.37;69.75
70214;DHT22;60138;55.808;37.078;2022-07-10T02:40:22;19.45;69.68
70214;DHT22;60138;55.808;37.078;2022-07-10T02:42:47;19.55;69.42
70214;DHT22;60138;55.808;37.078;2022-07-10T02:45:13;19.58;69.41
70214;DHT22;60138;55.808;37.078;2022-07-10T02:47:39;19.57;69.36
70214;DHT22;60138;55.808;37.078;2022-07-10T02:50:06;19.60;69.49
70214;DHT22;60138;55.808;37.078;2022-07-10T02:52:32;19.62;69.26
70214;DHT22;60138;55.808;37.078;2022-07-10T02:54:58;19.65;69.00
70214;DHT22;60138;55.808;37.078;2022-07-10T02:57:24;19.68;69.01
70214;DHT22;60138;55.808;37.078;2022-07-10T02:59:50;19.73;68.71
70214;DHT22;60138;55.808;37.078;2022-07-10T03:02:16;19.72;68.86
70214;DHT22;60138;55.808;37.078;2022-07-10T03:04:42;19.69;69.48
70214;DHT22;60138;55.808;37.078;2022-07-10T03:07:07;19.62;69.61
70214;DHT22;60138;55.808;37.078;2022-07-10T03:09:34;19.51;72.04
70214;DHT22;60138;55.808;37.078;2022-07-10T03:11:59;19.42;70.84
70214;DHT22;60138;55.808;37.078;2022-07-10T03:14:25;19.42;70.97
70214;DHT22;60138;55.808;37.078;2022-07-10T03:16:51;19.44;70.33
70214;DHT22;60138;55.808;37.078;2022-07-10T03:19:17;19.44;71.04
70214;DHT22;60138;55.808;37.078;2022-07-10T03:21:43;19.45;70.59
70214;DHT22;60138;55.808;37.078;2022-07-10T03:24:08;19.42;71.88
70214;DHT22;60138;55.808;37.078;2022-07-10T03:26:34;19.38;70.81
70214;DHT22;60138;55.808;37.078;2022-07-10T03:29:00;19.43;70.08
70214;DHT22;60138;55.808;37.078;2022-07-10T03:31:26;19.48;69.71
70214;DHT22;60138;55.808;37.078;2022-07-10T03:33:51;19.58;69.68
70214;DHT22;60138;55.808;37.078;2022-07-10T03:36:17;19.63;69.37
70214;DHT22;60138;55.808;37.078;2022-07-10T03:38:43;19.66;69.28
70214;DHT22;60138;55.808;37.078;2022-07-10T03:41:08;19.71;68.96
70214;DHT22;60138;55.808;37.078;2022-07-10T03:43:34;19.75;68.65
70214;DHT22;60138;55.808;37.078;2022-07-10T03:46:00;19.75;68.67
70214;DHT22;60138;55.808;37.078;2022-07-10T03:48:25;19.77;68.74
70214;DHT22;60138;55.808;37.078;2022-07-10T03:50:51;19.87;68.71
70214;DHT22;60138;55.808;37.078;2022-07-10T03:53:18;19.95;68.54
70214;DHT22;60138;55.808;37.078;2022-07-10T03:55:45;20.01;68.45
70214;DHT22;60138;55.808;37.078;2022-07-10T03:58:11;20.00;68.58
70214;DHT22;60138;55.808;37.078;2022-07-10T04:00:36;19.96;68.33
70214;DHT22;60138;55.808;37.078;2022-07-10T04:03:04;19.89;67.84
70214;DHT22;60138;55.808;37.078;2022-07-10T04:05:30;19.85;68.10
70214;DHT22;60138;55.808;37.078;2022-07-10T04:07:57;19.83;68.50
70214;DHT22;60138;55.808;37.078;2022-07-10T04:10:24;19.80;68.06
70214;DHT22;60138;55.808;37.078;2022-07-10T04:12:50;19.66;68.71
70214;DHT22;60138;55.808;37.078;2022-07-10T04:15:16;19.66;68.71
70214;DHT22;60138;55.808;37.078;2022-07-10T04:17:42;19.69;67.30
70214;DHT22;60138;55.808;37.078;2022-07-10T04:20:08;19.66;68.33
70214;DHT22;60138;55.808;37.078;2022-07-10T04:22:34;19.70;68.65
70214;DHT22;60138;55.808;37.078;2022-07-10T04:25:00;19.74;67.91
70214;DHT22;60138;55.808;37.078;2022-07-10T04:27:26;19.69;69.09
70214;DHT22;60138;55.808;37.078;2022-07-10T04:29:51;19.72;68.71
70214;DHT22;60138;55.808;37.078;2022-07-10T04:32:17;19.77;68.65
70214;DHT22;60138;55.808;37.078;2022-07-10T04:34:43;19.86;68.70
70214;DHT22;60138;55.808;37.078;2022-07-10T04:37:09;19.95;68.62
70214;DHT22;60138;55.808;37.078;2022-07-10T04:39:35;20.04;68.52
70214;DHT22;60138;55.808;37.078;2022-07-10T04:42:02;20.14;68.50
70214;DHT22;60138;55.808;37.078;2022-07-10T04:44:27;20.11;68.62
70214;DHT22;60138;55.808;37.078;2022-07-10T04:46:53;20.05;68.23
70214;DHT22;60138;55.808;37.078;2022-07-10T04:49:19;20.10;68.19
70214;DHT22;60138;55.808;37.078;2022-07-10T04:51:44;20.15;68.56
70214;DHT22;60138;55.808;37.078;2022-07-10T04:54:10;20.19;68.62
70214;DHT22;60138;55.808;37.078;2022-07-10T04:56:36;20.24;68.77
70214;DHT22;60138;55.808;37.078;2022-07-10T04:59:02;20.30;68.37
70214;DHT22;60138;55.808;37.078;2022-07-10T05:01:28;20.41;68.55
70214;DHT22;60138;55.808;37.078;2022-07-10T05:03:54;20.45;68.62
70214;DHT22;60138;55.808;37.078;2022-07-10T05:06:20;20.40;68.51
70214;DHT22;60138;55.808;37.078;2022-07-10T05:08:46;20.29;68.74
70214;DHT22;60138;55.808;37.078;2022-07-10T05:11:11;20.25;68.26
70214;DHT22;60138;55.808;37.078;2022-07-10T05:13:37;20.30;67.99
70214;DHT22;60138;55.808;37.078;2022-07-10T05:16:04;20.39;67.43
70214;DHT22;60138;55.808;37.078;2022-07-10T05:18:30;20.54;67.17
70214;DHT22;60138;55.808;37.078;2022-07-10T05:20:56;20.58;67.41
70214;DHT22;60138;55.808;37.078;2022-07-10T05:23:22;20.64;67.81
70214;DHT22;60138;55.808;37.078;2022-07-10T05:25:48;20.74;67.83
70214;DHT22;60138;55.808;37.078;2022-07-10T05:28:14;20.76;66.89
70214;DHT22;60138;55.808;37.078;2022-07-10T05:30:40;20.86;66.87
70214;DHT22;60138;55.808;37.078;2022-07-10T05:33:06;21.01;66.72
70214;DHT22;60138;55.808;37.078;2022-07-10T05:35:31;21.22;66.57
70214;DHT22;60138;55.808;37.078;2022-07-10T05:37:57;21.33;65.65
70214;DHT22;60138;55.808;37.078;2022-07-10T05:40:23;21.40;65.33
70214;DHT22;60138;55.808;37.078;2022-07-10T05:42:49;21.44;64.90
70214;DHT22;60138;55.808;37.078;2022-07-10T05:45:15;21.40;64.56
70214;DHT22;60138;55.808;37.078;2022-07-10T05:47:40;21.32;64.31
70214;DHT22;60138;55.808;37.078;2022-07-10T05:50:06;21.34;65.52
70214;DHT22;60138;55.808;37.078;2022-07-10T05:52:33;21.44;65.17
70214;DHT22;60138;55.808;37.078;2022-07-10T05:54:59;21.48;64.72
70214;DHT22;60138;55.808;37.078;2022-07-10T05:57:25;21.49;64.76
70214;DHT22;60138;55.808;37.078;2022-07-10T05:59:50;21.50;64.73
70214;DHT22;60138;55.808;37.078;2022-07-10T06:02:16;21.48;64.72
70214;DHT22;60138;55.808;37.078;2022-07-10T06:04:42;21.49;64.76
70214;DHT22;60138;55.808;37.078;2022-07-10T06:07:08;21.49;64.96
70214;DHT22;60138;55.808;37.078;2022-07-10T06:09:34;21.47;64.74
70214;DHT22;60138;55.808;37.078;2022-07-10T06:12:00;21.50;64.93
70214;DHT22;60138;55.808;37.078;2022-07-10T06:14:26;21.54;64.99
70214;DHT22;60138;55.808;37.078;2022-07-10T06:16:52;21.62;65.11
70214;DHT22;60138;55.808;37.078;2022-07-10T06:19:18;21.63;64.98
70214;DHT22;60138;55.808;37.078;2022-07-10T06:21:44;21.64;65.05
70214;DHT22;60138;55.808;37.078;2022-07-10T06:24:10;21.65;65.14
70214;DHT22;60138;55.808;37.078;2022-07-10T06:26:36;21.64;64.96
70214;DHT22;60138;55.808;37.078;2022-07-10T06:29:02;21.67;65.05
70214;DHT22;60138;55.808;37.078;2022-07-10T06:31:28;21.77;64.94
70214;DHT22;60138;55.808;37.078;2022-07-10T06:33:54;21.82;65.15
70214;DHT22;60138;55.808;37.078;2022-07-10T06:36:19;21.85;65.18
70214;DHT22;60138;55.808;37.078;2022-07-10T06:38:45;21.87;65.19
70214;DHT22;60138;55.808;37.078;2022-07-10T06:41:11;21.97;64.97
70214;DHT22;60138;55.808;37.078;2022-07-10T06:43:37;22.18;65.01
70214;DHT22;60138;55.808;37.078;2022-07-10T06:46:02;22.50;64.76
70214;DHT22;60138;55.808;37.078;2022-07-10T06:48:28;22.76;64.34
70214;DHT22;60138;55.808;37.078;2022-07-10T06:50:54;22.95;63.95
70214;DHT22;60138;55.808;37.078;2022-07-10T06:53:20;22.90;63.30
70214;DHT22;60138;55.808;37.078;2022-07-10T06:55:46;22.90;63.68
70214;DHT22;60138;55.808;37.078;2022-07-10T06:58:12;22.94;63.81
70214;DHT22;60138;55.808;37.078;2022-07-10T07:00:37;22.98;63.69
70214;DHT22;60138;55.808;37.078;2022-07-10T07:03:03;23.00;63.66
70214;DHT22;60138;55.808;37.078;2022-07-10T07:05:29;23.00;63.76
70214;DHT22;60138;55.808;37.078;2022-07-10T07:07:54;23.00;63.78
70214;DHT22;60138;55.808;37.078;2022-07-10T07:10:20;23.02;63.94
70214;DHT22;60138;55.808;37.078;2022-07-10T07:12:46;23.12;63.97
70214;DHT22;60138;55.808;37.078;2022-07-10T07:15:12;23.26;63.85
70214;DHT22;60138;55.808;37.078;2022-07-10T07:17:41;23.46;63.73
70214;DHT22;60138;55.808;37.078;2022-07-10T07:20:07;23.65;63.61
70214;DHT22;60138;55.808;37.078;2022-07-10T07:22:33;23.80;63.16
70214;DHT22;60138;55.808;37.078;2022-07-10T07:24:59;23.90;62.82
70214;DHT22;60138;55.808;37.078;2022-07-10T07:27:25;24.02;62.37
70214;DHT22;60138;55.808;37.078;2022-07-10T07:29:51;24.19;62.06
70214;DHT22;60138;55.808;37.078;2022-07-10T07:32:17;24.36;61.64
70214;DHT22;60138;55.808;37.078;2022-07-10T07:34:43;24.58;61.26
70214;DHT22;60138;55.808;37.078;2022-07-10T07:37:08;24.83;61.05
70214;DHT22;60138;55.808;37.078;2022-07-10T07:39:34;25.02;60.64
70214;DHT22;60138;55.808;37.078;2022-07-10T07:42:00;25.21;60.32
70214;DHT22;60138;55.808;37.078;2022-07-10T07:44:26;25.36;59.52
70214;DHT22;60138;55.808;37.078;2022-07-10T07:46:51;25.46;59.60
70214;DHT22;60138;55.808;37.078;2022-07-10T07:49:17;25.48;59.36
70214;DHT22;60138;55.808;37.078;2022-07-10T07:51:43;25.47;59.53
70214;DHT22;60138;55.808;37.078;2022-07-10T07:54:08;25.49;59.32
70214;DHT22;60138;55.808;37.078;2022-07-10T07:56:34;25.57;59.64
70214;DHT22;60138;55.808;37.078;2022-07-10T07:59:00;25.63;58.90
70214;DHT22;60138;55.808;37.078;2022-07-10T08:01:26;25.58;58.96
70214;DHT22;60138;55.808;37.078;2022-07-10T08:03:52;25.54;59.39
70214;DHT22;60138;55.808;37.078;2022-07-10T08:06:17;25.53;59.22
70214;DHT22;60138;55.808;37.078;2022-07-10T08:08:43;25.48;59.01
70214;DHT22;60138;55.808;37.078;2022-07-10T08:11:09;25.45;58.48
70214;DHT22;60138;55.808;37.078;2022-07-10T08:13:35;25.43;58.22
70214;DHT22;60138;55.808;37.078;2022-07-10T08:16:00;25.45;57.93
70214;DHT22;60138;55.808;37.078;2022-07-10T08:18:26;25.48;57.95
70214;DHT22;60138;55.808;37.078;2022-07-10T08:20:52;25.53;57.72
70214;DHT22;60138;55.808;37.078;2022-07-10T08:23:18;25.59;58.09
70214;DHT22;60138;55.808;37.078;2022-07-10T08:25:43;25.73;58.21
70214;DHT22;60138;55.808;37.078;2022-07-10T08:28:09;25.87;58.32
70214;DHT22;60138;55.808;37.078;2022-07-10T08:30:35;25.98;58.27
70214;DHT22;60138;55.808;37.078;2022-07-10T08:33:01;26.08;57.77
70214;DHT22;60138;55.808;37.078;2022-07-10T08:35:27;26.07;57.68
70214;DHT22;60138;55.808;37.078;2022-07-10T08:37:52;25.97;57.80
70214;DHT22;60138;55.808;37.078;2022-07-10T08:40:21;25.80;57.85
70214;DHT22;60138;55.808;37.078;2022-07-10T08:42:47;25.62;58.13
70214;DHT22;60138;55.808;37.078;2022-07-10T08:45:13;25.45;58.32
70214;DHT22;60138;55.808;37.078;2022-07-10T08:47:39;25.27;58.49
70214;DHT22;60138;55.808;37.078;2022-07-10T08:50:17;25.12;58.91
70214;DHT22;60138;55.808;37.078;2022-07-10T08:52:44;24.92;59.37
70214;DHT22;60138;55.808;37.078;2022-07-10T08:55:13;24.79;59.52
70214;DHT22;60138;55.808;37.078;2022-07-10T08:57:39;24.68;59.74
70214;DHT22;60138;55.808;37.078;2022-07-10T09:00:06;24.60;59.97
70214;DHT22;60138;55.808;37.078;2022-07-10T09:02:32;24.53;60.09
70214;DHT22;60138;55.808;37.078;2022-07-10T09:04:58;24.43;60.12
70214;DHT22;60138;55.808;37.078;2022-07-10T09:07:24;24.43;60.43
70214;DHT22;60138;55.808;37.078;2022-07-10T09:09:54;24.46;60.34
70214;DHT22;60138;55.808;37.078;2022-07-10T09:12:21;24.54;60.38
70214;DHT22;60138;55.808;37.078;2022-07-10T09:14:47;24.63;60.38
70214;DHT22;60138;55.808;37.078;2022-07-10T09:17:13;24.71;60.54
70214;DHT22;60138;55.808;37.078;2022-07-10T09:19:39;24.75;60.49
70214;DHT22;60138;55.808;37.078;2022-07-10T09:22:09;24.73;60.21
70214;DHT22;60138;55.808;37.078;2022-07-10T09:24:43;24.71;60.35
70214;DHT22;60138;55.808;37.078;2022-07-10T09:27:11;24.66;59.83
70214;DHT22;60138;55.808;37.078;2022-07-10T09:29:55;24.65;59.74
70214;DHT22;60138;55.808;37.078;2022-07-10T09:32:21;24.68;59.72
70214;DHT22;60138;55.808;37.078;2022-07-10T09:34:47;24.72;59.40
70214;DHT22;60138;55.808;37.078;2022-07-10T09:37:20;24.87;59.09
70214;DHT22;60138;55.808;37.078;2022-07-10T09:39:52;25.10;58.29
70214;DHT22;60138;55.808;37.078;2022-07-10T09:44:50;25.58;57.88
70214;DHT22;60138;55.808;37.078;2022-07-10T09:47:22;25.80;57.67
70214;DHT22;60138;55.808;37.078;2022-07-10T09:49:48;25.97;57.50
70214;DHT22;60138;55.808;37.078;2022-07-10T09:52:16;26.10;57.20
70214;DHT22;60138;55.808;37.078;2022-07-10T09:54:44;26.26;57.17
70214;DHT22;60138;55.808;37.078;2022-07-10T09:57:12;26.49;56.78
70214;DHT22;60138;55.808;37.078;2022-07-10T09:59:39;26.73;56.63
70214;DHT22;60138;55.808;37.078;2022-07-10T10:02:07;26.95;55.89
70214;DHT22;60138;55.808;37.078;2022-07-10T10:04:35;27.22;55.65
70214;DHT22;60138;55.808;37.078;2022-07-10T10:07:02;27.45;54.92
70214;DHT22;60138;55.808;37.078;2022-07-10T10:09:38;27.68;53.81
70214;DHT22;60138;55.808;37.078;2022-07-10T10:12:16;27.93;53.54
70214;DHT22;60138;55.808;37.078;2022-07-10T10:14:41;28.20;53.52
70214;DHT22;60138;55.808;37.078;2022-07-10T10:17:08;28.44;53.15
70214;DHT22;60138;55.808;37.078;2022-07-10T10:19:34;28.62;53.47
70214;DHT22;60138;55.808;37.078;2022-07-10T10:22:01;28.79;52.80
70214;DHT22;60138;55.808;37.078;2022-07-10T10:24:31;28.82;52.17
70214;DHT22;60138;55.808;37.078;2022-07-10T10:26:57;28.84;51.88
70214;DHT22;60138;55.808;37.078;2022-07-10T10:29:23;28.86;51.71
70214;DHT22;60138;55.808;37.078;2022-07-10T10:31:50;28.92;51.80
70214;DHT22;60138;55.808;37.078;2022-07-10T10:34:39;29.11;50.98
70214;DHT22;60138;55.808;37.078;2022-07-10T10:37:05;29.32;51.76
70214;DHT22;60138;55.808;37.078;2022-07-10T10:39:51;29.58;49.90
70214;DHT22;60138;55.808;37.078;2022-07-10T10:42:32;29.68;49.48
70214;DHT22;60138;55.808;37.078;2022-07-10T10:45:30;29.63;49.19
70214;DHT22;60138;55.808;37.078;2022-07-10T10:53:01;29.36;49.21
70214;DHT22;60138;55.808;37.078;2022-07-10T10:55:27;29.34;49.56
70214;DHT22;60138;55.808;37.078;2022-07-10T10:57:53;29.29;49.16
70214;DHT22;60138;55.808;37.078;2022-07-10T11:00:37;29.22;49.12
70214;DHT22;60138;55.808;37.078;2022-07-10T11:03:13;29.18;48.73
70214;DHT22;60138;55.808;37.078;2022-07-10T11:05:40;29.13;49.78
70214;DHT22;60138;55.808;37.078;2022-07-10T11:08:05;29.13;49.64
70214;DHT22;60138;55.808;37.078;2022-07-10T11:10:39;29.16;49.42
70214;DHT22;60138;55.808;37.078;2022-07-10T11:13:14;29.28;49.75
70214;DHT22;60138;55.808;37.078;2022-07-10T11:15:42;29.45;49.57
70214;DHT22;60138;55.808;37.078;2022-07-10T11:18:11;29.54;48.18
70214;DHT22;60138;55.808;37.078;2022-07-10T11:26:07;30.06;47.38
70214;DHT22;60138;55.808;37.078;2022-07-10T11:31:08;30.19;47.47
70214;DHT22;60138;55.808;37.078;2022-07-10T11:33:41;30.15;44.61
70214;DHT22;60138;55.808;37.078;2022-07-10T11:36:15;30.21;47.10
70214;DHT22;60138;55.808;37.078;2022-07-10T11:38:43;30.38;47.08
70214;DHT22;60138;55.808;37.078;2022-07-10T11:41:16;30.48;46.64
70214;DHT22;60138;55.808;37.078;2022-07-10T11:43:47;30.69;46.12
70214;DHT22;60138;55.808;37.078;2022-07-10T11:46:12;30.92;46.44
70214;DHT22;60138;55.808;37.078;2022-07-10T11:48:38;31.16;47.01
70214;DHT22;60138;55.808;37.078;2022-07-10T11:51:18;31.19;46.10
70214;DHT22;60138;55.808;37.078;2022-07-10T11:56:33;33.14;43.13
70214;DHT22;60138;55.808;37.078;2022-07-10T11:59:01;34.29;42.64
70214;DHT22;60138;55.808;37.078;2022-07-10T12:01:29;35.34;40.04
70214;DHT22;60138;55.808;37.078;2022-07-10T12:04:02;36.09;37.85
70214;DHT22;60138;55.808;37.078;2022-07-10T12:06:29;36.90;37.88
70214;DHT22;60138;55.808;37.078;2022-07-10T12:08:55;37.80;38.75
70214;DHT22;60138;55.808;37.078;2022-07-10T12:11:22;38.48;38.53
70214;DHT22;60138;55.808;37.078;2022-07-10T12:13:50;39.14;37.44
70214;DHT22;60138;55.808;37.078;2022-07-10T12:16:16;39.61;37.30
70214;DHT22;60138;55.808;37.078;2022-07-10T12:18:42;40.68;34.89
70214;DHT22;60138;55.808;37.078;2022-07-10T12:21:12;41.63;33.90
70214;DHT22;60138;55.808;37.078;2022-07-10T12:23:38;42.22;35.73
70214;DHT22;60138;55.808;37.078;2022-07-10T12:26:04;42.37;34.44
70214;DHT22;60138;55.808;37.078;2022-07-10T12:28:48;41.18;30.61
70214;DHT22;60138;55.808;37.078;2022-07-10T12:31:20;40.26;34.12
70214;DHT22;60138;55.808;37.078;2022-07-10T12:33:53;40.21;34.74
70214;DHT22;60138;55.808;37.078;2022-07-10T12:36:20;40.39;35.75
70214;DHT22;60138;55.808;37.078;2022-07-10T12:38:53;41.26;33.70
70214;DHT22;60138;55.808;37.078;2022-07-10T12:41:19;41.22;33.96
70214;DHT22;60138;55.808;37.078;2022-07-10T12:43:45;41.39;33.68
70214;DHT22;60138;55.808;37.078;2022-07-10T12:48:43;43.20;31.89
70214;DHT22;60138;55.808;37.078;2022-07-10T12:51:26;42.11;28.80
70214;DHT22;60138;55.808;37.078;2022-07-10T12:53:53;41.24;33.33
70214;DHT22;60138;55.808;37.078;2022-07-10T12:56:33;40.83;31.28
70214;DHT22;60138;55.808;37.078;2022-07-10T12:58:59;40.32;33.57
70214;DHT22;60138;55.808;37.078;2022-07-10T13:01:39;40.70;33.41
70214;DHT22;60138;55.808;37.078;2022-07-10T13:04:05;41.37;32.59
70214;DHT22;60138;55.808;37.078;2022-07-10T13:06:32;42.48;32.13
70214;DHT22;60138;55.808;37.078;2022-07-10T13:08:59;43.13;31.60
70214;DHT22;60138;55.808;37.078;2022-07-10T13:11:24;43.52;31.56
70214;DHT22;60138;55.808;37.078;2022-07-10T13:13:50;44.11;29.61
70214;DHT22;60138;55.808;37.078;2022-07-10T13:16:16;44.47;29.29
70214;DHT22;60138;55.808;37.078;2022-07-10T13:18:43;44.35;30.00
70214;DHT22;60138;55.808;37.078;2022-07-10T13:21:08;45.16;29.89
70214;DHT22;60138;55.808;37.078;2022-07-10T13:23:34;45.59;28.32
70214;DHT22;60138;55.808;37.078;2022-07-10T13:26:00;46.18;28.24
70214;DHT22;60138;55.808;37.078;2022-07-10T13:28:26;46.67;28.07
70214;DHT22;60138;55.808;37.078;2022-07-10T13:30:52;46.94;27.32
70214;DHT22;60138;55.808;37.078;2022-07-10T13:33:18;46.55;23.41
70214;DHT22;60138;55.808;37.078;2022-07-10T13:35:44;45.56;26.74
70214;DHT22;60138;55.808;37.078;2022-07-10T13:38:10;45.02;28.11
70214;DHT22;60138;55.808;37.078;2022-07-10T13:40:37;44.54;27.40
70214;DHT22;60138;55.808;37.078;2022-07-10T13:43:03;43.91;28.91
70214;DHT22;60138;55.808;37.078;2022-07-10T13:45:30;43.34;27.91
70214;DHT22;60138;55.808;37.078;2022-07-10T13:47:56;42.45;28.35
70214;DHT22;60138;55.808;37.078;2022-07-10T13:50:22;41.64;28.56
70214;DHT22;60138;55.808;37.078;2022-07-10T13:52:48;40.80;29.02
70214;DHT22;60138;55.808;37.078;2022-07-10T13:55:14;39.93;27.46
70214;DHT22;60138;55.808;37.078;2022-07-10T13:57:40;38.96;28.55
70214;DHT22;60138;55.808;37.078;2022-07-10T14:00:06;38.33;30.23
70214;DHT22;60138;55.808;37.078;2022-07-10T14:02:38;37.93;31.80
70214;DHT22;60138;55.808;37.078;2022-07-10T14:05:04;37.43;31.79
70214;DHT22;60138;55.808;37.078;2022-07-10T14:07:30;37.01;32.44
70214;DHT22;60138;55.808;37.078;2022-07-10T14:09:56;36.58;32.86
70214;DHT22;60138;55.808;37.078;2022-07-10T14:12:21;36.12;33.26
70214;DHT22;60138;55.808;37.078;2022-07-10T14:14:47;35.79;34.27
70214;DHT22;60138;55.808;37.078;2022-07-10T14:17:13;35.37;34.33
70214;DHT22;60138;55.808;37.078;2022-07-10T14:19:39;34.89;35.02
70214;DHT22;60138;55.808;37.078;2022-07-10T14:22:04;34.48;35.54
70214;DHT22;60138;55.808;37.078;2022-07-10T14:24:30;34.02;35.80
70214;DHT22;60138;55.808;37.078;2022-07-10T14:26:56;33.57;36.91
70214;DHT22;60138;55.808;37.078;2022-07-10T14:29:22;33.23;37.00
70214;DHT22;60138;55.808;37.078;2022-07-10T14:31:48;32.93;37.18
70214;DHT22;60138;55.808;37.078;2022-07-10T14:34:34;32.58;38.18
70214;DHT22;60138;55.808;37.078;2022-07-10T14:37:00;32.15;38.49
70214;DHT22;60138;55.808;37.078;2022-07-10T14:39:26;31.85;39.01
70214;DHT22;60138;55.808;37.078;2022-07-10T14:41:52;31.61;40.43
70214;DHT22;60138;55.808;37.078;2022-07-10T14:44:18;31.18;39.85
70214;DHT22;60138;55.808;37.078;2022-07-10T14:46:43;30.38;39.90
70214;DHT22;60138;55.808;37.078;2022-07-10T14:49:09;29.58;41.17
70214;DHT22;60138;55.808;37.078;2022-07-10T14:51:35;28.84;42.44
70214;DHT22;60138;55.808;37.078;2022-07-10T14:54:01;28.10;46.15
70214;DHT22;60138;55.808;37.078;2022-07-10T14:56:27;27.30;46.72
70214;DHT22;60138;55.808;37.078;2022-07-10T14:58:53;26.66;45.51
70214;DHT22;60138;55.808;37.078;2022-07-10T15:01:19;26.12;47.05
70214;DHT22;60138;55.808;37.078;2022-07-10T15:03:44;25.86;47.12
70214;DHT22;60138;55.808;37.078;2022-07-10T15:06:10;25.69;47.85
70214;DHT22;60138;55.808;37.078;2022-07-10T15:08:36;25.53;47.63
70214;DHT22;60138;55.808;37.078;2022-07-10T15:11:02;25.43;48.14
70214;DHT22;60138;55.808;37.078;2022-07-10T15:13:28;25.32;48.53
70214;DHT22;60138;55.808;37.078;2022-07-10T15:15:54;25.27;48.62
70214;DHT22;60138;55.808;37.078;2022-07-10T15:18:20;25.28;48.90
70214;DHT22;60138;55.808;37.078;2022-07-10T15:20:46;25.19;48.83
70214;DHT22;60138;55.808;37.078;2022-07-10T15:23:12;25.09;49.04
70214;DHT22;60138;55.808;37.078;2022-07-10T15:25:42;24.94;49.44
70214;DHT22;60138;55.808;37.078;2022-07-10T15:28:09;24.83;49.18
70214;DHT22;60138;55.808;37.078;2022-07-10T15:30:36;24.78;49.73
70214;DHT22;60138;55.808;37.078;2022-07-10T15:33:03;24.75;49.80
70214;DHT22;60138;55.808;37.078;2022-07-10T15:35:30;24.60;49.82